sensor_id;sensor_type;location;lat;lon;timestamp;temperature;humidity
30379;DHT22;17168;49.164;9.060;2022-09-30T00:00:09;11.10;99.90
30379;DHT22;17168;49.164;9.060;2022-09-30T00:02:41;11.10;99.90
30379;DHT22;17168;49.164;9.060;2022-09-30T00:05:13;11.00;99.90
30379;DHT22;17168;49.164;9.060;2022-09-30T00:07:46;11.00;99.90
30379;DHT22;17168;49.164;9.060;2022-09-30T00:10:17;11.00;99.90
30379;DHT22;17168;49.164;9.060;2022-09-30T00:12:50;10.90;99.90
30379;DHT22;17168;49.164;9.060;2022-09-30T00:15:22;10.90;99.90
30379;DHT22;17168;49.164;9.060;2022-09-30T00:17:53;10.90;99.90
30379;DHT22;17168;49.164;9.060;2022-09-30T00:20:26;10.80;99.90
30379;DHT22;17168;49.164;9.060;2022-09-30T00:22:58;10.80;99.90
30379;DHT22;17168;49.164;9.060;2022-09-30T00:25:30;10.80;99.90
30379;DHT22;17168;49.164;9.060;2022-09-30T00:28:02;10.70;99.90
30379;DHT22;17168;49.164;9.060;2022-09-30T00:30:34;10.70;99.90
30379;DHT22;17168;49.164;9.060;2022-09-30T00:33:05;10.60;99.90
30379;DHT22;17168;49.164;9.060;2022-09-30T00:35:37;10.60;99.90
30379;DHT22;17168;49.164;9.060;2022-09-30T00:38:11;10.60;99.90
30379;DHT22;17168;49.164;9.060;2022-09-30T00:40:42;10.50;99.90
30379;DHT22;17168;49.164;9.060;2022-09-30T00:43:15;10.50;99.90
30379;DHT22;17168;49.164;9.060;2022-09-30T00:45:48;10.40;99.90
30379;DHT22;17168;49.164;9.060;2022-09-30T00:48:22;10.40;99.90
30379;DHT22;17168;49.164;9.060;2022-09-30T00:50:55;10.30;99.90
30379;DHT22;17168;49.164;9.060;2022-09-30T00:53:29;10.30;99.90
30379;DHT22;17168;49.164;9.060;2022-09-30T00:56:02;10.20;99.90
30379;DHT22;17168;49.164;9.060;2022-09-30T00:58:36;10.20;99.90
30379;DHT22;17168;49.164;9.060;2022-09-30T01:01:09;10.20;99.90
30379;DHT22;17168;49.164;9.060;2022-09-30T01:03:41;10.10;99.90
30379;DHT22;17168;49.164;9.060;2022-09-30T01:06:14;10.10;99.90
30379;DHT22;17168;49.164;9.060;2022-09-30T01:08:47;10.10;99.90
30379;DHT22;17168;49.164;9.060;2022-09-30T01:11:19;10.10;99.90
30379;DHT22;17168;49.164;9.060;2022-09-30T01:13:51;10.10;99.90
30379;DHT22;17168;49.164;9.060;2022-09-30T01:16:31;10.10;99.90
30379;DHT22;17168;49.164;9.060;2022-09-30T01:19:17;10.00;99.90
30379;DHT22;17168;49.164;9.060;2022-09-30T01:25:02;9.90;99.90
30379;DHT22;17168;49.164;9.060;2022-09-30T01:27:43;9.90;99.90
30379;DHT22;17168;49.164;9.060;2022-09-30T01:30:18;9.80;99.90
30379;DHT22;17168;49.164;9.060;2022-09-30T01:32:56;9.80;99.90
30379;DHT22;17168;49.164;9.060;2022-09-30T01:35:36;9.80;99.90
30379;DHT22;17168;49.164;9.060;2022-09-30T01:38:11;9.80;99.90
30379;DHT22;17168;49.164;9.060;2022-09-30T01:40:44;9.80;99.90
30379;DHT22;17168;49.164;9.060;2022-09-30T01:43:21;9.80;99.90
30379;DHT22;17168;49.164;9.060;2022-09-30T01:45:55;9.80;99.90
30379;DHT22;17168;49.164;9.060;2022-09-30T01:48:32;9.80;99.90
30379;DHT22;17168;49.164;9.060;2022-09-30T01:51:06;9.80;99.90
30379;DHT22;17168;49.164;9.060;2022-09-30T01:53:39;9.80;99.90
30379;DHT22;17168;49.164;9.060;2022-09-30T01:56:15;9.80;99.90
30379;DHT22;17168;49.164;9.060;2022-09-30T01:58:49;9.80;99.90
30379;DHT22;17168;49.164;9.060;2022-09-30T02:01:24;9.70;99.90
30379;DHT22;17168;49.164;9.060;2022-09-30T02:04:00;9.80;99.90
30379;DHT22;17168;49.164;9.060;2022-09-30T02:06:34;9.70;99.90
30379;DHT22;17168;49.164;9.060;2022-09-30T02:09:09;9.70;99.90
30379;DHT22;17168;49.164;9.060;2022-09-30T02:11:42;9.70;99.90
30379;DHT22;17168;49.164;9.060;2022-09-30T02:14:15;9.70;99.90
30379;DHT22;17168;49.164;9.060;2022-09-30T02:16:48;9.70;99.90
30379;DHT22;17168;49.164;9.060;2022-09-30T02:19:23;9.70;99.90
30379;DHT22;17168;49.164;9.060;2022-09-30T02:21:59;9.70;99.90
30379;DHT22;17168;49.164;9.060;2022-09-30T02:24:34;9.70;99.90
30379;DHT22;17168;49.164;9.060;2022-09-30T02:27:12;9.60;99.90
30379;DHT22;17168;49.164;9.060;2022-09-30T02:29:47;9.70;99.90
30379;DHT22;17168;49.164;9.060;2022-09-30T02:32:24;9.60;99.90
30379;DHT22;17168;49.164;9.060;2022-09-30T02:35:01;9.70;99.90
30379;DHT22;17168;49.164;9.060;2022-09-30T02:37:36;9.60;99.90
30379;DHT22;17168;49.164;9.060;2022-09-30T02:40:12;9.60;99.90
30379;DHT22;17168;49.164;9.060;2022-09-30T02:42:46;9.60;99.90
30379;DHT22;17168;49.164;9.060;2022-09-30T02:45:20;9.60;99.90
30379;DHT22;17168;49.164;9.060;2022-09-30T02:47:56;9.60;99.90
30379;DHT22;17168;49.164;9.060;2022-09-30T02:50:31;9.60;99.90
30379;DHT22;17168;49.164;9.060;2022-09-30T02:53:12;9.60;99.90
30379;DHT22;17168;49.164;9.060;2022-09-30T02:55:51;9.50;99.90
30379;DHT22;17168;49.164;9.060;2022-09-30T02:58:28;9.50;99.90
30379;DHT22;17168;49.164;9.060;2022-09-30T03:01:00;9.50;99.90
30379;DHT22;17168;49.164;9.060;2022-09-30T03:03:35;9.50;99.90
30379;DHT22;17168;49.164;9.060;2022-09-30T03:06:11;9.40;99.90
30379;DHT22;17168;49.164;9.060;2022-09-30T03:08:44;9.40;99.90
30379;DHT22;17168;49.164;9.060;2022-09-30T03:11:18;9.40;99.90
30379;DHT22;17168;49.164;9.060;2022-09-30T03:14:20;9.40;99.90
30379;DHT22;17168;49.164;9.060;2022-09-30T03:17:02;9.40;99.90
30379;DHT22;17168;49.164;9.060;2022-09-30T03:19:38;9.30;99.90
30379;DHT22;17168;49.164;9.060;2022-09-30T03:22:21;9.30;99.90
30379;DHT22;17168;49.164;9.060;2022-09-30T03:24:59;9.30;99.90
30379;DHT22;17168;49.164;9.060;2022-09-30T03:27:34;9.30;99.90
30379;DHT22;17168;49.164;9.060;2022-09-30T03:30:12;9.20;99.90
30379;DHT22;17168;49.164;9.060;2022-09-30T03:32:48;9.20;99.90
30379;DHT22;17168;49.164;9.060;2022-09-30T03:35:25;9.20;99.90
30379;DHT22;17168;49.164;9.060;2022-09-30T03:38:02;9.20;99.90
30379;DHT22;17168;49.164;9.060;2022-09-30T03:40:42;9.20;99.90
30379;DHT22;17168;49.164;9.060;2022-09-30T03:43:16;9.10;99.90
30379;DHT22;17168;49.164;9.060;2022-09-30T03:45:51;9.20;99.90
30379;DHT22;17168;49.164;9.060;2022-09-30T03:48:24;9.20;99.90
30379;DHT22;17168;49.164;9.060;2022-09-30T03:50:58;9.10;99.90
30379;DHT22;17168;49.164;9.060;2022-09-30T03:53:31;9.10;99.90
30379;DHT22;17168;49.164;9.060;2022-09-30T03:56:07;9.20;99.90
30379;DHT22;17168;49.164;9.060;2022-09-30T03:58:40;9.00;99.90
30379;DHT22;17168;49.164;9.060;2022-09-30T04:01:16;9.00;99.90
30379;DHT22;17168;49.164;9.060;2022-09-30T04:03:50;9.00;99.90
30379;DHT22;17168;49.164;9.060;2022-09-30T04:06:23;8.90;99.90
30379;DHT22;17168;49.164;9.060;2022-09-30T04:08:56;8.90;99.90
30379;DHT22;17168;49.164;9.060;2022-09-30T04:11:28;8.90;99.90
30379;DHT22;17168;49.164;9.060;2022-09-30T04:14:00;8.90;99.90
30379;DHT22;17168;49.164;9.060;2022-09-30T04:16:32;8.90;99.90
30379;DHT22;17168;49.164;9.060;2022-09-30T04:19:03;8.90;99.90
30379;DHT22;17168;49.164;9.060;2022-09-30T04:21:35;8.90;99.90
30379;DHT22;17168;49.164;9.060;2022-09-30T04:24:08;8.90;99.90
30379;DHT22;17168;49.164;9.060;2022-09-30T04:26:40;8.90;99.90
30379;DHT22;17168;49.164;9.060;2022-09-30T04:29:11;8.90;99.90
30379;DHT22;17168;49.164;9.060;2022-09-30T04:31:43;8.90;99.90
30379;DHT22;17168;49.164;9.060;2022-09-30T04:34:15;8.90;99.90
30379;DHT22;17168;49.164;9.060;2022-09-30T04:36:47;8.90;99.90
30379;DHT22;17168;49.164;9.060;2022-09-30T04:39:20;8.80;99.90
30379;DHT22;17168;49.164;9.060;2022-09-30T04:41:52;8.80;99.90
30379;DHT22;17168;49.164;9.060;2022-09-30T04:44:24;8.80;99.90
30379;DHT22;17168;49.164;9.060;2022-09-30T04:46:58;8.80;99.90
30379;DHT22;17168;49.164;9.060;2022-09-30T04:50:05;8.80;99.90
30379;DHT22;17168;49.164;9.060;2022-09-30T04:59:12;8.80;99.90
30379;DHT22;17168;49.164;9.060;2022-09-30T05:05:08;8.80;99.90
30379;DHT22;17168;49.164;9.060;2022-09-30T05:08:09;8.70;99.90
30379;DHT22;17168;49.164;9.060;2022-09-30T05:11:06;8.70;99.90
30379;DHT22;17168;49.164;9.060;2022-09-30T05:13:43;8.70;99.90
30379;DHT22;17168;49.164;9.060;2022-09-30T05:16:36;8.70;99.90
30379;DHT22;17168;49.164;9.060;2022-09-30T05:19:41;8.70;99.90
30379;DHT22;17168;49.164;9.060;2022-09-30T05:22:13;8.70;99.90
30379;DHT22;17168;49.164;9.060;2022-09-30T05:24:44;8.70;99.90
30379;DHT22;17168;49.164;9.060;2022-09-30T05:27:16;8.80;99.90
30379;DHT22;17168;49.164;9.060;2022-09-30T05:29:48;8.70;99.90
30379;DHT22;17168;49.164;9.060;2022-09-30T05:32:21;8.70;99.90
30379;DHT22;17168;49.164;9.060;2022-09-30T05:34:53;8.60;99.90
30379;DHT22;17168;49.164;9.060;2022-09-30T05:37:26;8.60;99.90
30379;DHT22;17168;49.164;9.060;2022-09-30T05:39:57;8.50;99.90
30379;DHT22;17168;49.164;9.060;2022-09-30T05:42:29;8.50;99.90
30379;DHT22;17168;49.164;9.060;2022-09-30T05:45:01;8.50;99.90
30379;DHT22;17168;49.164;9.060;2022-09-30T05:47:34;8.50;99.90
30379;DHT22;17168;49.164;9.060;2022-09-30T05:50:06;8.50;99.90
30379;DHT22;17168;49.164;9.060;2022-09-30T05:52:38;8.50;99.90
30379;DHT22;17168;49.164;9.060;2022-09-30T05:55:09;8.40;99.90
30379;DHT22;17168;49.164;9.060;2022-09-30T05:57:41;8.40;99.90
30379;DHT22;17168;49.164;9.060;2022-09-30T06:00:14;8.30;99.90
30379;DHT22;17168;49.164;9.060;2022-09-30T06:02:50;8.30;99.90
30379;DHT22;17168;49.164;9.060;2022-09-30T06:05:22;8.30;99.90
30379;DHT22;17168;49.164;9.060;2022-09-30T06:07:54;8.20;99.90
30379;DHT22;17168;49.164;9.060;2022-09-30T06:10:25;8.30;99.90
30379;DHT22;17168;49.164;9.060;2022-09-30T06:12:57;8.10;99.90
30379;DHT22;17168;49.164;9.060;2022-09-30T06:15:32;8.10;99.90
30379;DHT22;17168;49.164;9.060;2022-09-30T06:18:05;8.10;99.90
30379;DHT22;17168;49.164;9.060;2022-09-30T06:20:37;8.10;99.90
30379;DHT22;17168;49.164;9.060;2022-09-30T06:23:08;8.20;99.90
30379;DHT22;17168;49.164;9.060;2022-09-30T06:25:40;8.20;99.90
30379;DHT22;17168;49.164;9.060;2022-09-30T06:28:13;8.30;99.90
30379;DHT22;17168;49.164;9.060;2022-09-30T06:30:45;8.40;99.90
30379;DHT22;17168;49.164;9.060;2022-09-30T06:33:18;8.40;99.90
30379;DHT22;17168;49.164;9.060;2022-09-30T06:35:50;8.40;99.90
30379;DHT22;17168;49.164;9.060;2022-09-30T06:38:22;8.50;99.90
30379;DHT22;17168;49.164;9.060;2022-09-30T06:40:54;8.50;99.90
30379;DHT22;17168;49.164;9.060;2022-09-30T06:43:27;8.60;99.90
30379;DHT22;17168;49.164;9.060;2022-09-30T06:45:59;8.70;99.90
30379;DHT22;17168;49.164;9.060;2022-09-30T06:48:48;8.70;99.90
30379;DHT22;17168;49.164;9.060;2022-09-30T06:51:20;8.80;99.90
30379;DHT22;17168;49.164;9.060;2022-09-30T06:53:52;8.80;99.90
30379;DHT22;17168;49.164;9.060;2022-09-30T06:56:24;8.90;99.90
30379;DHT22;17168;49.164;9.060;2022-09-30T06:58:56;8.90;99.90
30379;DHT22;17168;49.164;9.060;2022-09-30T07:01:28;9.00;99.90
30379;DHT22;17168;49.164;9.060;2022-09-30T07:04:02;9.00;99.90
30379;DHT22;17168;49.164;9.060;2022-09-30T07:06:39;9.10;99.90
30379;DHT22;17168;49.164;9.060;2022-09-30T07:09:12;9.20;99.90
30379;DHT22;17168;49.164;9.060;2022-09-30T07:11:44;9.20;99.90
30379;DHT22;17168;49.164;9.060;2022-09-30T07:14:16;9.30;99.90
30379;DHT22;17168;49.164;9.060;2022-09-30T07:16:48;9.40;99.90
30379;DHT22;17168;49.164;9.060;2022-09-30T07:19:22;9.40;99.90
30379;DHT22;17168;49.164;9.060;2022-09-30T07:21:54;9.50;99.90
30379;DHT22;17168;49.164;9.060;2022-09-30T07:24:26;9.50;99.90
30379;DHT22;17168;49.164;9.060;2022-09-30T07:26:59;9.60;99.90
30379;DHT22;17168;49.164;9.060;2022-09-30T07:29:30;9.60;99.90
30379;DHT22;17168;49.164;9.060;2022-09-30T07:32:24;9.70;99.90
30379;DHT22;17168;49.164;9.060;2022-09-30T07:34:57;9.80;99.90
30379;DHT22;17168;49.164;9.060;2022-09-30T07:37:29;9.80;99.90
30379;DHT22;17168;49.164;9.060;2022-09-30T07:40:10;9.90;99.90
30379;DHT22;17168;49.164;9.060;2022-09-30T07:42:42;10.00;99.90
30379;DHT22;17168;49.164;9.060;2022-09-30T07:45:16;10.10;99.90
30379;DHT22;17168;49.164;9.060;2022-09-30T07:47:50;10.10;99.90
30379;DHT22;17168;49.164;9.060;2022-09-30T07:50:25;10.20;99.90
30379;DHT22;17168;49.164;9.060;2022-09-30T07:52:57;10.20;99.90
30379;DHT22;17168;49.164;9.060;2022-09-30T07:55:29;10.30;99.90
30379;DHT22;17168;49.164;9.060;2022-09-30T07:58:01;10.40;99.90
30379;DHT22;17168;49.164;9.060;2022-09-30T08:00:33;10.50;99.90
30379;DHT22;17168;49.164;9.060;2022-09-30T08:03:14;10.50;99.90
30379;DHT22;17168;49.164;9.060;2022-09-30T08:05:47;10.60;99.90
30379;DHT22;17168;49.164;9.060;2022-09-30T08:08:19;10.60;99.90
30379;DHT22;17168;49.164;9.060;2022-09-30T08:10:51;10.70;99.90
30379;DHT22;17168;49.164;9.060;2022-09-30T08:13:22;10.70;99.90
30379;DHT22;17168;49.164;9.060;2022-09-30T08:15:54;10.70;99.90
30379;DHT22;17168;49.164;9.060;2022-09-30T08:18:26;10.80;99.90
30379;DHT22;17168;49.164;9.060;2022-09-30T08:21:05;10.80;99.90
30379;DHT22;17168;49.164;9.060;2022-09-30T08:23:37;10.80;99.90
30379;DHT22;17168;49.164;9.060;2022-09-30T08:26:11;10.80;99.90
30379;DHT22;17168;49.164;9.060;2022-09-30T08:28:46;10.90;99.90
30379;DHT22;17168;49.164;9.060;2022-09-30T08:31:20;11.00;99.90
30379;DHT22;17168;49.164;9.060;2022-09-30T08:33:52;11.00;99.90
30379;DHT22;17168;49.164;9.060;2022-09-30T08:36:26;11.10;99.90
30379;DHT22;17168;49.164;9.060;2022-09-30T08:38:58;11.20;99.90
30379;DHT22;17168;49.164;9.060;2022-09-30T08:41:54;11.30;99.90
30379;DHT22;17168;49.164;9.060;2022-09-30T08:44:43;11.30;99.90
30379;DHT22;17168;49.164;9.060;2022-09-30T08:47:32;11.40;99.90
30379;DHT22;17168;49.164;9.060;2022-09-30T08:50:15;11.50;99.90
30379;DHT22;17168;49.164;9.060;2022-09-30T08:52:54;11.50;99.90
30379;DHT22;17168;49.164;9.060;2022-09-30T08:55:42;11.60;99.90
30379;DHT22;17168;49.164;9.060;2022-09-30T08:58:20;11.70;99.90
30379;DHT22;17168;49.164;9.060;2022-09-30T09:00:58;11.80;99.90
30379;DHT22;17168;49.164;9.060;2022-09-30T09:03:32;11.80;99.90
30379;DHT22;17168;49.164;9.060;2022-09-30T09:06:17;11.90;99.90
30379;DHT22;17168;49.164;9.060;2022-09-30T09:09:07;12.00;99.90
30379;DHT22;17168;49.164;9.060;2022-09-30T09:11:53;12.00;99.90
30379;DHT22;17168;49.164;9.060;2022-09-30T09:14:38;12.10;99.90
30379;DHT22;17168;49.164;9.060;2022-09-30T09:17:24;12.20;99.90
30379;DHT22;17168;49.164;9.060;2022-09-30T09:20:02;12.20;99.90
30379;DHT22;17168;49.164;9.060;2022-09-30T09:22:36;12.30;99.90
30379;DHT22;17168;49.164;9.060;2022-09-30T09:25:12;12.30;99.90
30379;DHT22;17168;49.164;9.060;2022-09-30T09:27:50;12.40;99.90
30379;DHT22;17168;49.164;9.060;2022-09-30T09:30:24;12.50;99.90
30379;DHT22;17168;49.164;9.060;2022-09-30T09:32:59;12.60;99.90
30379;DHT22;17168;49.164;9.060;2022-09-30T09:35:38;12.70;99.90
30379;DHT22;17168;49.164;9.060;2022-09-30T09:38:21;12.80;99.90
30379;DHT22;17168;49.164;9.060;2022-09-30T09:41:05;12.90;99.90
30379;DHT22;17168;49.164;9.060;2022-09-30T09:43:50;13.00;99.90
30379;DHT22;17168;49.164;9.060;2022-09-30T09:46:29;13.00;99.90
30379;DHT22;17168;49.164;9.060;2022-09-30T09:49:28;13.10;99.90
30379;DHT22;17168;49.164;9.060;2022-09-30T09:52:27;13.10;99.90
30379;DHT22;17168;49.164;9.060;2022-09-30T09:55:06;13.20;99.90
30379;DHT22;17168;49.164;9.060;2022-09-30T09:57:42;13.20;99.90
30379;DHT22;17168;49.164;9.060;2022-09-30T10:00:22;13.30;99.90
30379;DHT22;17168;49.164;9.060;2022-09-30T10:03:14;13.30;99.90
30379;DHT22;17168;49.164;9.060;2022-09-30T10:06:06;13.30;99.90
30379;DHT22;17168;49.164;9.060;2022-09-30T10:08:52;13.30;99.90
30379;DHT22;17168;49.164;9.060;2022-09-30T10:11:45;13.40;99.90
30379;DHT22;17168;49.164;9.060;2022-09-30T10:14:20;13.40;99.90
30379;DHT22;17168;49.164;9.060;2022-09-30T10:17:08;13.50;99.90
30379;DHT22;17168;49.164;9.060;2022-09-30T10:19:54;13.50;99.90
30379;DHT22;17168;49.164;9.060;2022-09-30T10:22:33;13.60;99.90
30379;DHT22;17168;49.164;9.060;2022-09-30T10:25:23;13.60;99.90
30379;DHT22;17168;49.164;9.060;2022-09-30T10:28:02;13.60;99.90
30379;DHT22;17168;49.164;9.060;2022-09-30T10:30:59;13.70;99.90
30379;DHT22;17168;49.164;9.060;2022-09-30T10:33:58;13.70;99.90
30379;DHT22;17168;49.164;9.060;2022-09-30T10:40:16;13.80;99.90
30379;DHT22;17168;49.164;9.060;2022-09-30T10:51:32;14.00;99.90
30379;DHT22;17168;49.164;9.060;2022-09-30T10:57:03;14.20;99.90
30379;DHT22;17168;49.164;9.060;2022-09-30T11:00:28;14.30;99.90
30379;DHT22;17168;49.164;9.060;2022-09-30T11:02:49;14.40;99.90
30379;DHT22;17168;49.164;9.060;2022-09-30T11:05:33;14.50;99.90
30379;DHT22;17168;49.164;9.060;2022-09-30T11:08:36;14.60;99.90
30379;DHT22;17168;49.164;9.060;2022-09-30T11:11:17;14.70;99.90
30379;DHT22;17168;49.164;9.060;2022-09-30T11:14:16;14.80;99.90
30379;DHT22;17168;49.164;9.060;2022-09-30T11:16:56;14.90;99.90
30379;DHT22;17168;49.164;9.060;2022-09-30T11:19:37;14.90;99.90
30379;DHT22;17168;49.164;9.060;2022-09-30T11:22:27;15.00;99.90
30379;DHT22;17168;49.164;9.060;2022-09-30T11:25:04;15.00;99.90
30379;DHT22;17168;49.164;9.060;2022-09-30T11:27:52;15.20;99.90
30379;DHT22;17168;49.164;9.060;2022-09-30T11:30:34;15.30;99.90
30379;DHT22;17168;49.164;9.060;2022-09-30T11:33:24;15.50;99.90
30379;DHT22;17168;49.164;9.060;2022-09-30T11:40:18;16.70;99.90
30379;DHT22;17168;49.164;9.060;2022-09-30T11:57:10;21.20;99.90
30379;DHT22;17168;49.164;9.060;2022-09-30T11:59:58;21.90;99.90
30379;DHT22;17168;49.164;9.060;2022-09-30T12:06:25;23.20;99.90
30379;DHT22;17168;49.164;9.060;2022-09-30T12:09:17;24.20;99.90
30379;DHT22;17168;49.164;9.060;2022-09-30T12:11:59;24.90;99.70
30379;DHT22;17168;49.164;9.060;2022-09-30T12:14:46;25.50;98.40
30379;DHT22;17168;49.164;9.060;2022-09-30T12:20:04;27.20;99.90
30379;DHT22;17168;49.164;9.060;2022-09-30T12:22:40;27.20;95.70
30379;DHT22;17168;49.164;9.060;2022-09-30T12:25:20;27.40;93.30
30379;DHT22;17168;49.164;9.060;2022-09-30T12:27:56;27.70;95.20
30379;DHT22;17168;49.164;9.060;2022-09-30T12:30:34;27.70;95.20
30379;DHT22;17168;49.164;9.060;2022-09-30T12:36:36;28.20;86.60
30379;DHT22;17168;49.164;9.060;2022-09-30T12:39:31;28.60;86.40
30379;DHT22;17168;49.164;9.060;2022-09-30T12:42:23;29.10;85.70
30379;DHT22;17168;49.164;9.060;2022-09-30T12:45:31;29.40;82.70
30379;DHT22;17168;49.164;9.060;2022-09-30T12:48:33;29.40;80.70
30379;DHT22;17168;49.164;9.060;2022-09-30T12:51:07;29.70;78.10
30379;DHT22;17168;49.164;9.060;2022-09-30T12:53:39;30.00;79.50
30379;DHT22;17168;49.164;9.060;2022-09-30T12:56:13;30.30;76.70
30379;DHT22;17168;49.164;9.060;2022-09-30T12:58:48;30.50;74.90
30379;DHT22;17168;49.164;9.060;2022-09-30T13:01:22;30.70;73.40
30379;DHT22;17168;49.164;9.060;2022-09-30T13:04:17;30.80;72.70
30379;DHT22;17168;49.164;9.060;2022-09-30T13:07:16;30.80;71.10
30379;DHT22;17168;49.164;9.060;2022-09-30T13:10:25;30.70;69.10
30379;DHT22;17168;49.164;9.060;2022-09-30T13:13:15;30.80;68.50
30379;DHT22;17168;49.164;9.060;2022-09-30T13:15:50;30.20;63.90
30379;DHT22;17168;49.164;9.060;2022-09-30T13:18:57;29.50;65.80
30379;DHT22;17168;49.164;9.060;2022-09-30T13:21:32;28.90;66.60
30379;DHT22;17168;49.164;9.060;2022-09-30T13:24:07;28.40;66.80
30379;DHT22;17168;49.164;9.060;2022-09-30T13:27:07;27.90;66.30
30379;DHT22;17168;49.164;9.060;2022-09-30T13:38:16;25.50;66.30
30379;DHT22;17168;49.164;9.060;2022-09-30T13:42:20;24.50;66.70
30379;DHT22;17168;49.164;9.060;2022-09-30T13:47:39;23.50;68.60
30379;DHT22;17168;49.164;9.060;2022-09-30T13:50:44;23.00;69.40
30379;DHT22;17168;49.164;9.060;2022-09-30T13:53:33;22.70;68.50
30379;DHT22;17168;49.164;9.060;2022-09-30T13:56:52;22.40;68.30
30379;DHT22;17168;49.164;9.060;2022-09-30T13:59:59;22.10;67.70
30379;DHT22;17168;49.164;9.060;2022-09-30T14:03:16;21.90;69.30
30379;DHT22;17168;49.164;9.060;2022-09-30T14:06:07;21.80;71.00
30379;DHT22;17168;49.164;9.060;2022-09-30T14:09:18;21.70;70.80
30379;DHT22;17168;49.164;9.060;2022-09-30T14:15:45;21.60;70.70
30379;DHT22;17168;49.164;9.060;2022-09-30T14:19:06;21.20;70.20
30379;DHT22;17168;49.164;9.060;2022-09-30T14:21:47;20.90;70.80
30379;DHT22;17168;49.164;9.060;2022-09-30T14:24:25;20.70;71.20
30379;DHT22;17168;49.164;9.060;2022-09-30T14:27:08;20.60;70.60
30379;DHT22;17168;49.164;9.060;2022-09-30T14:29:42;20.60;70.50
30379;DHT22;17168;49.164;9.060;2022-09-30T14:32:18;20.60;72.50
30379;DHT22;17168;49.164;9.060;2022-09-30T14:34:52;20.50;73.10
30379;DHT22;17168;49.164;9.060;2022-09-30T14:37:27;20.50;72.60
30379;DHT22;17168;49.164;9.060;2022-09-30T14:40:01;20.50;72.40
30379;DHT22;17168;49.164;9.060;2022-09-30T14:42:36;20.50;73.00
30379;DHT22;17168;49.164;9.060;2022-09-30T14:45:12;21.00;73.50
30379;DHT22;17168;49.164;9.060;2022-09-30T14:47:49;21.40;73.60
30379;DHT22;17168;49.164;9.060;2022-09-30T14:50:24;21.80;72.80
30379;DHT22;17168;49.164;9.060;2022-09-30T14:52:57;21.80;71.50
30379;DHT22;17168;49.164;9.060;2022-09-30T14:55:33;21.80;71.00
30379;DHT22;17168;49.164;9.060;2022-09-30T14:58:20;21.80;70.80
30379;DHT22;17168;49.164;9.060;2022-09-30T15:00:59;21.90;70.60
30379;DHT22;17168;49.164;9.060;2022-09-30T15:03:33;21.90;70.50
30379;DHT22;17168;49.164;9.060;2022-09-30T15:06:16;21.80;70.30
30379;DHT22;17168;49.164;9.060;2022-09-30T15:08:49;21.50;69.70
30379;DHT22;17168;49.164;9.060;2022-09-30T15:11:24;21.30;70.30
30379;DHT22;17168;49.164;9.060;2022-09-30T15:14:01;21.00;70.40
30379;DHT22;17168;49.164;9.060;2022-09-30T15:16:44;20.80;70.50
30379;DHT22;17168;49.164;9.060;2022-09-30T15:19:19;20.60;70.50
30379;DHT22;17168;49.164;9.060;2022-09-30T15:21:54;20.50;71.00
30379;DHT22;17168;49.164;9.060;2022-09-30T15:24:27;20.30;71.10
30379;DHT22;17168;49.164;9.060;2022-09-30T15:27:03;20.20;71.40
30379;DHT22;17168;49.164;9.060;2022-09-30T15:29:36;20.10;71.70
30379;DHT22;17168;49.164;9.060;2022-09-30T15:32:13;20.00;71.90
30379;DHT22;17168;49.164;9.060;2022-09-30T15:34:46;19.90;72.30
30379;DHT22;17168;49.164;9.060;2022-09-30T15:37:20;19.80;72.90
30379;DHT22;17168;49.164;9.060;2022-09-30T15:39:53;19.70;72.90
30379;DHT22;17168;49.164;9.060;2022-09-30T15:42:51;19.50;73.00
30379;DHT22;17168;49.164;9.060;2022-09-30T15:45:28;19.40;73.40
30379;DHT22;17168;49.164;9.060;2022-09-30T15:48:08;19.20;73.90
30379;DHT22;17168;49.164;9.060;2022-09-30T15:50:59;19.10;74.50
30379;DHT22;17168;49.164;9.060;2022-09-30T15:53:45;19.00;75.20
30379;DHT22;17168;49.164;9.060;2022-09-30T15:56:23;19.00;75.70
30379;DHT22;17168;49.164;9.060;2022-09-30T15:58:58;18.90;76.70
30379;DHT22;17168;49.164;9.060;2022-09-30T16:01:37;18.80;77.20
30379;DHT22;17168;49.164;9.060;2022-09-30T16:04:20;18.70;77.60
30379;DHT22;17168;49.164;9.060;2022-09-30T16:06:59;18.60;77.90
30379;DHT22;17168;49.164;9.060;2022-09-30T16:09:39;18.60;78.50
30379;DHT22;17168;49.164;9.060;2022-09-30T16:12:16;18.50;78.90
30379;DHT22;17168;49.164;9.060;2022-09-30T16:14:53;18.50;79.50
30379;DHT22;17168;49.164;9.060;2022-09-30T16:17:27;18.40;80.10
30379;DHT22;17168;49.164;9.060;2022-09-30T16:20:03;18.20;80.40
30379;DHT22;17168;49.164;9.060;2022-09-30T16:22:49;18.10;81.20
30379;DHT22;17168;49.164;9.060;2022-09-30T16:25:24;17.90;81.60
30379;DHT22;17168;49.164;9.060;2022-09-30T16:28:00;17.70;82.50
30379;DHT22;17168;49.164;9.060;2022-09-30T16:30:34;17.60;83.00
30379;DHT22;17168;49.164;9.060;2022-09-30T16:33:05;17.50;83.50
30379;DHT22;17168;49.164;9.060;2022-09-30T16:35:40;17.40;84.00
30379;DHT22;17168;49.164;9.060;2022-09-30T16:38:14;17.40;84.40
30379;DHT22;17168;49.164;9.060;2022-09-30T16:40:46;17.30;85.00
30379;DHT22;17168;49.164;9.060;2022-09-30T16:43:18;17.30;85.30
30379;DHT22;17168;49.164;9.060;2022-09-30T16:45:51;17.20;85.40
30379;DHT22;17168;49.164;9.060;2022-09-30T16:48:24;17.20;85.60
30379;DHT22;17168;49.164;9.060;2022-09-30T16:51:01;17.20;85.70
30379;DHT22;17168;49.164;9.060;2022-09-30T16:53:34;17.20;85.60
30379;DHT22;17168;49.164;9.060;2022-09-30T16:56:07;17.10;85.30
30379;DHT22;17168;49.164;9.060;2022-09-30T16:58:41;17.00;85.30
30379;DHT22;17168;49.164;9.060;2022-09-30T17:01:18;16.90;85.40
30379;DHT22;17168;49.164;9.060;2022-09-30T17:03:51;16.90;85.70
30379;DHT22;17168;49.164;9.060;2022-09-30T17:06:25;16.70;86.10
30379;DHT22;17168;49.164;9.060;2022-09-30T17:08:58;16.60;86.50
30379;DHT22;17168;49.164;9.060;2022-09-30T17:11:34;16.40;87.00
30379;DHT22;17168;49.164;9.060;2022-09-30T17:16:40;16.10;87.90
30379;DHT22;17168;49.164;9.060;2022-09-30T17:19:12;16.00;88.80
30379;DHT22;17168;49.164;9.060;2022-09-30T17:21:44;16.00;88.90
30379;DHT22;17168;49.164;9.060;2022-09-30T17:24:16;15.90;88.90
30379;DHT22;17168;49.164;9.060;2022-09-30T17:26:48;15.90;88.90
30379;DHT22;17168;49.164;9.060;2022-09-30T17:29:21;15.80;89.00
30379;DHT22;17168;49.164;9.060;2022-09-30T17:32:06;15.70;89.20
30379;DHT22;17168;49.164;9.060;2022-09-30T17:34:38;15.60;89.30
30379;DHT22;17168;49.164;9.060;2022-09-30T17:37:11;15.60;89.60
30379;DHT22;17168;49.164;9.060;2022-09-30T17:39:45;15.50;90.00
30379;DHT22;17168;49.164;9.060;2022-09-30T17:42:17;15.40;90.30
30379;DHT22;17168;49.164;9.060;2022-09-30T17:45:08;15.30;90.60
30379;DHT22;17168;49.164;9.060;2022-09-30T17:47:41;15.30;91.20
30379;DHT22;17168;49.164;9.060;2022-09-30T17:50:13;15.30;91.70
30379;DHT22;17168;49.164;9.060;2022-09-30T17:52:45;15.20;91.70
30379;DHT22;17168;49.164;9.060;2022-09-30T17:55:17;15.10;90.80
30379;DHT22;17168;49.164;9.060;2022-09-30T17:57:49;15.20;92.30
30379;DHT22;17168;49.164;9.060;2022-09-30T18:00:21;15.10;93.00